createdAt,value
2018-08-24T00:00:12.758Z,100371.75
2018-08-24T00:02:41.070Z,100371.83
2018-08-24T00:05:09.415Z,100374.87
2018-08-24T00:07:37.771Z,100376.86
2018-08-24T00:10:06.421Z,100383.17
2018-08-24T00:12:34.730Z,100376.24
2018-08-24T00:15:03.022Z,100380.05
2018-08-24T00:17:32.032Z,100372.02
2018-08-24T00:20:01.159Z,100373.56
2018-08-24T00:22:29.648Z,100365.98
2018-08-24T00:24:57.962Z,100355.73
2018-08-24T00:27:32.563Z,100359.09
2018-08-24T00:30:01.064Z,100360.80
2018-08-24T00:32:29.415Z,100353.09
2018-08-24T00:34:57.764Z,100352.58
2018-08-24T00:37:26.126Z,100351.40
2018-08-24T00:39:54.468Z,100343.21
2018-08-24T00:42:22.799Z,100341.72
2018-08-24T00:44:51.106Z,100342.69
2018-08-24T00:47:19.415Z,100335.42
2018-08-24T00:49:47.748Z,100340.01
2018-08-24T00:52:16.043Z,100348.84
2018-08-24T00:54:44.395Z,100343.20
2018-08-24T00:57:12.710Z,100345.28
2018-08-24T00:59:41.029Z,100348.84
2018-08-24T01:02:09.339Z,100345.97
2018-08-24T01:04:37.796Z,100348.41
2018-08-24T01:07:11.924Z,100356.95
2018-08-24T01:09:40.949Z,100351.16
2018-08-24T01:12:10.417Z,100360.44
2018-08-24T01:14:40.126Z,100352.41
2018-08-24T01:17:13.756Z,100354.22
2018-08-24T01:19:42.525Z,100354.06
2018-08-24T01:22:10.831Z,100355.02
2018-08-24T01:24:39.160Z,100349.30
2018-08-24T01:27:08.261Z,100346.78
2018-08-24T01:29:38.649Z,100347.43
2018-08-24T01:32:07.387Z,100342.84
2018-08-24T01:34:36.660Z,100337.26
2018-08-24T01:37:05.067Z,100340.17
2018-08-24T01:39:33.724Z,100339.48
2018-08-24T01:42:02.148Z,100338.90
2018-08-24T01:44:30.690Z,100339.91
2018-08-24T01:46:59.002Z,100335.24
2018-08-24T01:49:27.665Z,100332.34
2018-08-24T01:51:56.007Z,100336.06
2018-08-24T01:54:24.394Z,100336.56
2018-08-24T01:56:52.752Z,100340.89
2018-08-24T01:59:21.082Z,100343.03
2018-08-24T02:01:49.376Z,100345.33
2018-08-24T02:04:17.781Z,100342.48
2018-08-24T02:06:46.116Z,100335.14
2018-08-24T02:09:14.513Z,100340.78
2018-08-24T02:11:43.017Z,100341.09
2018-08-24T02:14:16.595Z,100342.63
2018-08-24T02:16:44.899Z,100344.40
2018-08-24T02:19:15.704Z,100346.78
2018-08-24T02:21:49.183Z,100349.16
2018-08-24T02:24:17.547Z,100351.69
2018-08-24T02:26:46.541Z,100350.88
2018-08-24T02:29:14.928Z,100352.41
2018-08-24T02:31:49.759Z,100356.22
2018-08-24T02:34:18.235Z,100340.19
2018-08-24T02:36:46.931Z,100339.58
2018-08-24T02:39:17.588Z,100344.34
2018-08-24T02:41:45.952Z,100337.80
2018-08-24T02:44:14.420Z,100341.72
2018-08-24T02:46:43.727Z,100343.15
2018-08-24T02:49:12.394Z,100349.21
2018-08-24T02:51:40.753Z,100351.70
2018-08-24T02:54:09.183Z,100349.98
2018-08-24T02:56:37.508Z,100343.63
2018-08-24T02:59:05.864Z,100350.69
2018-08-24T03:01:34.194Z,100349.94
2018-08-24T03:04:02.532Z,100337.91
2018-08-24T03:06:30.856Z,100336.95
2018-08-24T03:08:59.161Z,100331.61
2018-08-24T03:11:27.475Z,100332.95
2018-08-24T03:13:55.791Z,100331.30
2018-08-24T03:16:24.134Z,100337.38
2018-08-24T03:18:52.417Z,100335.34
2018-08-24T03:21:20.773Z,100338.77
2018-08-24T03:23:49.088Z,100347.07
2018-08-24T03:26:17.403Z,100348.70
2018-08-24T03:28:45.744Z,100343.97
2018-08-24T03:31:14.085Z,100348.02
2018-08-24T03:33:42.419Z,100346.21
2018-08-24T03:36:10.729Z,100345.73
2018-08-24T03:38:39.040Z,100355.44
2018-08-24T03:41:07.364Z,100350.14
2018-08-24T03:43:35.832Z,100347.41
2018-08-24T03:46:04.773Z,100352.07
2018-08-24T03:48:33.395Z,100348.09
2018-08-24T03:51:01.855Z,100356.20
2018-08-24T03:53:30.173Z,100355.20
2018-08-24T03:55:58.505Z,100355.72
2018-08-24T03:58:26.867Z,100359.39
2018-08-24T04:00:58.463Z,100359.72
2018-08-24T04:03:27.571Z,100367.33
2018-08-24T04:05:55.931Z,100365.60
2018-08-24T04:08:24.254Z,100366.02
2018-08-24T04:10:52.609Z,100369.50
2018-08-24T04:13:20.965Z,100363.97
2018-08-24T04:15:49.309Z,100372.71
2018-08-24T04:18:17.675Z,100369.84
2018-08-24T04:20:46.021Z,100374.36
2018-08-24T04:23:14.336Z,100369.45
2018-08-24T04:25:42.763Z,100367.92
2018-08-24T04:28:11.021Z,100367.17
2018-08-24T04:30:39.364Z,100371.16
2018-08-24T04:33:07.678Z,100367.55
2018-08-24T04:35:36.100Z,100365.40
2018-08-24T04:38:04.605Z,100370.05
2018-08-24T04:40:32.971Z,100366.34
2018-08-24T04:43:01.303Z,100372.19
2018-08-24T04:45:29.717Z,100373.11
2018-08-24T04:47:57.994Z,100372.69
2018-08-24T04:50:26.311Z,100374.61
2018-08-24T04:52:54.616Z,100369.89
2018-08-24T04:55:22.960Z,100374.58
2018-08-24T04:57:51.286Z,100377.88
2018-08-24T05:00:19.605Z,100378.59
2018-08-24T05:02:47.976Z,100376.64
2018-08-24T05:05:16.363Z,100377.84
2018-08-24T05:07:44.662Z,100369.22
2018-08-24T05:10:13.139Z,100379.99
2018-08-24T05:12:41.489Z,100376.90
2018-08-24T05:15:09.843Z,100374.53
2018-08-24T05:17:38.151Z,100379.77
2018-08-24T05:20:06.496Z,100377.03
2018-08-24T05:22:34.826Z,100385.85
2018-08-24T05:25:03.354Z,100376.67
2018-08-24T05:27:31.960Z,100383.22
2018-08-24T05:30:00.293Z,100383.45
2018-08-24T05:32:28.618Z,100382.41
2018-08-24T05:34:56.980Z,100388.45
2018-08-24T05:37:25.448Z,100385.66
2018-08-24T05:39:53.756Z,100381.23
2018-08-24T05:42:22.088Z,100386.05
2018-08-24T05:44:50.374Z,100386.98
2018-08-24T05:47:18.819Z,100388.91
2018-08-24T05:49:47.313Z,100390.95
2018-08-24T05:52:15.755Z,100390.56
2018-08-24T05:54:44.115Z,100392.84
2018-08-24T05:57:12.425Z,100387.52
2018-08-24T05:59:40.773Z,100389.43
2018-08-24T06:02:09.130Z,100386.24
2018-08-24T06:04:37.476Z,100386.86
2018-08-24T06:07:05.780Z,100391.25
2018-08-24T06:09:34.071Z,100392.97
2018-08-24T06:12:02.465Z,100391.73
2018-08-24T06:14:30.802Z,100392.13
2018-08-24T06:17:04.568Z,100403.84
2018-08-24T06:19:32.888Z,100398.41
2018-08-24T06:22:01.226Z,100398.02
2018-08-24T06:24:29.637Z,100401.80
2018-08-24T06:26:57.933Z,100395.55
2018-08-24T06:29:26.335Z,100404.30
2018-08-24T06:31:54.691Z,100404.02
2018-08-24T06:34:22.965Z,100401.54
2018-08-24T06:36:51.359Z,100397.77
2018-08-24T06:39:19.645Z,100401.54
2018-08-24T06:41:48.005Z,100411.17
2018-08-24T06:44:16.351Z,100410.45
2018-08-24T06:46:44.787Z,100415.89
2018-08-24T06:49:13.150Z,100410.45
2018-08-24T06:51:41.483Z,100410.36
2018-08-24T06:54:09.958Z,100418.20
2018-08-24T06:56:38.283Z,100427.25
2018-08-24T06:59:06.636Z,100424.13
2018-08-24T07:01:34.993Z,100423.50
2018-08-24T07:04:03.506Z,100422.05
2018-08-24T07:06:31.835Z,100424.29
2018-08-24T07:09:00.134Z,100427.67
2018-08-24T07:11:28.439Z,100434.84
2018-08-24T07:13:56.849Z,100431.91
2018-08-24T07:16:25.160Z,100435.09
2018-08-24T07:18:53.524Z,100428.00
2018-08-24T07:21:21.809Z,100425.03
2018-08-24T07:23:50.171Z,100421.07
2018-08-24T07:26:18.522Z,100418.83
2018-08-24T07:28:46.867Z,100428.00
2018-08-24T07:31:15.676Z,100426.38
2018-08-24T07:33:43.992Z,100437.93
2018-08-24T07:36:12.410Z,100436.82
2018-08-24T07:38:40.781Z,100448.83
2018-08-24T07:41:09.119Z,100448.34
2018-08-24T07:43:37.439Z,100454.51
2018-08-24T07:46:05.774Z,100473.73
2018-08-24T07:48:34.100Z,100467.27
2018-08-24T07:51:02.519Z,100475.59
2018-08-24T07:53:30.831Z,100468.42
2018-08-24T07:55:59.165Z,100475.22
2018-08-24T07:58:27.466Z,100476.66
2018-08-24T08:00:55.795Z,100488.77
2018-08-24T08:03:24.105Z,100495.95
2018-08-24T08:05:52.457Z,100492.02
2018-08-24T08:08:20.772Z,100489.06
2018-08-24T08:10:49.137Z,100492.66
2018-08-24T08:13:17.467Z,100503.09
2018-08-24T08:15:45.790Z,100499.84
2018-08-24T08:18:14.144Z,100490.70
2018-08-24T08:20:42.449Z,100490.91
2018-08-24T08:23:10.800Z,100499.94
2018-08-24T08:25:39.135Z,100502.67
2018-08-24T08:28:07.529Z,100504.92
2018-08-24T08:30:36.173Z,100505.66
2018-08-24T08:33:04.580Z,100512.72
2018-08-24T08:35:33.274Z,100505.03
2018-08-24T08:38:01.593Z,100508.91
2018-08-24T08:40:29.960Z,100522.26
2018-08-24T08:42:58.327Z,100523.30
2018-08-24T08:45:26.704Z,100526.48
2018-08-24T08:47:55.006Z,100538.06
2018-08-24T08:50:23.347Z,100541.34
2018-08-24T08:52:51.854Z,100548.94
2018-08-24T08:55:20.196Z,100552.53
2018-08-24T08:57:48.528Z,100550.27
2018-08-24T09:00:16.877Z,100551.94
2018-08-24T09:02:45.215Z,100546.20
2018-08-24T09:05:13.544Z,100554.69
2018-08-24T09:07:41.879Z,100558.09
2018-08-24T09:10:16.827Z,100557.98
2018-08-24T09:12:45.125Z,100559.30
2018-08-24T09:15:13.510Z,100564.25
2018-08-24T09:17:47.229Z,100574.41
2018-08-24T09:20:20.821Z,100569.34
2018-08-24T09:22:54.468Z,100569.23
2018-08-24T09:25:28.155Z,100565.16
2018-08-24T09:28:01.721Z,100573.34
2018-08-24T09:30:34.454Z,100573.34
2018-08-24T09:33:02.809Z,100571.41
2018-08-24T09:35:31.211Z,100574.91
2018-08-24T09:37:59.580Z,100578.85
2018-08-24T09:40:33.150Z,100575.22
2018-08-24T09:43:05.731Z,100574.73
2018-08-24T09:45:33.989Z,100574.83
2018-08-24T09:48:07.635Z,100579.13
2018-08-24T09:50:41.197Z,100577.89
2018-08-24T09:53:14.930Z,100581.90
2018-08-24T09:55:43.431Z,100583.06
2018-08-24T09:58:11.753Z,100588.30
2018-08-24T10:00:45.217Z,100587.83
2018-08-24T10:03:19.730Z,100587.33
2018-08-24T10:05:53.435Z,100592.20
2018-08-24T10:08:26.920Z,100585.00
2018-08-24T10:10:55.276Z,100580.60
2018-08-24T10:13:23.846Z,100579.53
2018-08-24T10:15:52.135Z,100586.70
2018-08-24T10:18:20.491Z,100585.78
2018-08-24T10:20:48.809Z,100585.70
2018-08-24T10:23:17.153Z,100586.34
2018-08-24T10:25:45.485Z,100585.83
2018-08-24T10:28:13.858Z,100584.19
2018-08-24T10:30:42.160Z,100585.58
2018-08-24T10:33:10.491Z,100588.95
2018-08-24T10:35:38.807Z,100588.03
2018-08-24T10:38:07.134Z,100587.64
2018-08-24T10:40:35.547Z,100591.97
2018-08-24T10:43:05.501Z,100583.00
2018-08-24T10:45:34.058Z,100580.58
2018-08-24T10:48:02.395Z,100577.86
2018-08-24T10:50:30.762Z,100584.39
2018-08-24T10:52:59.624Z,100583.45
2018-08-24T10:55:28.025Z,100582.73
2018-08-24T10:57:56.662Z,100579.37
2018-08-24T11:00:25.055Z,100578.99
2018-08-24T11:02:53.383Z,100568.58
2018-08-24T11:05:21.779Z,100574.47
2018-08-24T11:07:50.186Z,100574.93
2018-08-24T11:10:18.502Z,100584.19
2018-08-24T11:12:46.809Z,100571.59
2018-08-24T11:15:15.086Z,100576.66
2018-08-24T11:17:49.212Z,100573.22
2018-08-24T11:20:17.676Z,100571.50
2018-08-24T11:22:46.028Z,100574.99
2018-08-24T11:25:14.326Z,100578.13
2018-08-24T11:27:42.695Z,100573.16
2018-08-24T11:30:11.034Z,100569.37
2018-08-24T11:32:39.348Z,100575.77
2018-08-24T11:35:07.758Z,100574.36
2018-08-24T11:37:36.124Z,100566.27
2018-08-24T11:40:04.484Z,100567.24
2018-08-24T11:42:32.831Z,100577.50
2018-08-24T11:45:01.121Z,100574.89
2018-08-24T11:47:29.508Z,100577.25
2018-08-24T11:49:57.852Z,100573.84
2018-08-24T11:52:26.174Z,100580.53
2018-08-24T11:54:54.484Z,100581.67
2018-08-24T11:57:22.864Z,100577.13
2018-08-24T11:59:51.299Z,100571.12
2018-08-24T12:02:19.613Z,100576.84
2018-08-24T12:04:47.933Z,100576.75
2018-08-24T12:07:16.278Z,100581.36
2018-08-24T12:09:44.623Z,100577.14
2018-08-24T12:12:12.959Z,100576.02
2018-08-24T12:14:41.272Z,100573.09
2018-08-24T12:17:11.396Z,100573.03
2018-08-24T12:19:39.730Z,100568.94
2018-08-24T12:22:08.124Z,100574.87
2018-08-24T12:24:36.497Z,100575.33
2018-08-24T12:27:04.837Z,100574.30
2018-08-24T12:29:33.190Z,100573.33
2018-08-24T12:32:01.495Z,100581.75
2018-08-24T12:34:29.790Z,100575.70
2018-08-24T12:36:58.105Z,100577.42
2018-08-24T12:39:26.412Z,100582.67
2018-08-24T12:41:54.756Z,100588.28
2018-08-24T12:44:23.032Z,100583.69
2018-08-24T12:46:51.353Z,100579.37
2018-08-24T12:49:19.771Z,100571.12
2018-08-24T12:51:48.080Z,100574.70
2018-08-24T12:54:16.434Z,100570.78
2018-08-24T12:56:44.800Z,100574.82
2018-08-24T12:59:13.132Z,100567.98
2018-08-24T13:01:41.433Z,100568.73
2018-08-24T13:04:09.741Z,100562.41
2018-08-24T13:06:38.071Z,100560.77
2018-08-24T13:09:08.072Z,100568.92
2018-08-24T13:11:36.373Z,100554.97
2018-08-24T13:14:04.685Z,100557.67
2018-08-24T13:16:32.992Z,100545.23
2018-08-24T13:19:01.357Z,100549.74
2018-08-24T13:21:29.687Z,100551.84
2018-08-24T13:23:58.111Z,100549.22
2018-08-24T13:26:26.492Z,100548.56
2018-08-24T13:28:54.809Z,100553.31
2018-08-24T13:31:23.187Z,100549.98
2018-08-24T13:33:51.484Z,100541.13
2018-08-24T13:36:19.823Z,100541.23
2018-08-24T13:38:48.353Z,100545.03
2018-08-24T13:41:16.692Z,100540.34
2018-08-24T13:43:45.068Z,100537.53
2018-08-24T13:46:21.724Z,100541.24
2018-08-24T13:48:51.385Z,100537.92
2018-08-24T13:51:19.848Z,100530.66
2018-08-24T13:53:48.195Z,100531.59
2018-08-24T13:56:17.213Z,100538.62
2018-08-24T13:58:45.552Z,100536.22
2018-08-24T14:01:14.626Z,100540.16
2018-08-24T14:03:42.939Z,100541.23
2018-08-24T14:06:11.294Z,100534.94
2018-08-24T14:08:39.602Z,100541.56
2018-08-24T14:11:07.917Z,100539.41
2018-08-24T14:13:36.283Z,100542.17
2018-08-24T14:16:04.605Z,100541.19
2018-08-24T14:18:32.932Z,100541.36
2018-08-24T14:21:01.268Z,100538.41
2018-08-24T14:23:29.580Z,100533.38
2018-08-24T14:25:57.924Z,100537.77
2018-08-24T14:28:26.248Z,100536.38
2018-08-24T14:30:54.596Z,100536.81
2018-08-24T14:33:22.986Z,100531.22
2018-08-24T14:35:51.394Z,100535.52
2018-08-24T14:38:19.754Z,100525.94
2018-08-24T14:40:48.080Z,100534.59
2018-08-24T14:43:16.400Z,100526.08
2018-08-24T14:45:44.720Z,100524.73
2018-08-24T14:48:13.051Z,100526.55
2018-08-24T14:50:41.357Z,100526.17
2018-08-24T14:53:09.698Z,100518.71
2018-08-24T14:55:38.054Z,100527.52
2018-08-24T14:58:06.406Z,100524.97
2018-08-24T15:00:34.716Z,100528.17
2018-08-24T15:03:03.197Z,100523.70
2018-08-24T15:05:31.532Z,100522.66
2018-08-24T15:07:59.863Z,100527.06
2018-08-24T15:10:28.227Z,100525.28
2018-08-24T15:12:56.509Z,100524.11
2018-08-24T15:15:24.820Z,100522.00
2018-08-24T15:17:53.156Z,100518.95
2018-08-24T15:20:21.469Z,100517.45
2018-08-24T15:22:49.765Z,100522.58
2018-08-24T15:25:18.077Z,100519.46
2018-08-24T15:27:52.836Z,100523.72
2018-08-24T15:30:21.186Z,100521.73
2018-08-24T15:32:49.507Z,100518.87
2018-08-24T15:35:17.914Z,100514.58
2018-08-24T15:37:46.165Z,100519.77
2018-08-24T15:40:14.508Z,100520.38
2018-08-24T15:42:42.829Z,100526.13
2018-08-24T15:45:11.113Z,100523.52
2018-08-24T15:47:39.476Z,100518.60
2018-08-24T15:50:07.877Z,100525.20
2018-08-24T15:52:36.525Z,100523.43
2018-08-24T15:55:04.849Z,100526.02
2018-08-24T15:57:33.180Z,100527.97
2018-08-24T16:00:01.558Z,100536.52
2018-08-24T16:02:29.818Z,100525.30
2018-08-24T16:04:58.120Z,100537.77
2018-08-24T16:07:26.459Z,100535.03
2018-08-24T16:09:54.790Z,100535.03
2018-08-24T16:12:23.194Z,100529.83
2018-08-24T16:14:51.477Z,100534.95
2018-08-24T16:17:19.824Z,100538.97
2018-08-24T16:19:48.129Z,100530.12
2018-08-24T16:22:16.473Z,100537.70
2018-08-24T16:24:44.961Z,100536.42
2018-08-24T16:27:17.498Z,100538.05
2018-08-24T16:29:45.976Z,100538.26
2018-08-24T16:32:14.277Z,100534.88
2018-08-24T16:34:42.658Z,100530.78
2018-08-24T16:37:11.353Z,100532.91
2018-08-24T16:39:39.726Z,100527.35
2018-08-24T16:42:08.183Z,100529.73
2018-08-24T16:44:36.516Z,100535.14
2018-08-24T16:47:04.825Z,100534.44
2018-08-24T16:49:33.139Z,100529.41
2018-08-24T16:52:01.481Z,100527.55
2018-08-24T16:54:29.925Z,100532.72
2018-08-24T16:56:58.341Z,100536.50
2018-08-24T16:59:26.617Z,100536.55
2018-08-24T17:01:54.971Z,100533.26
2018-08-24T17:04:23.406Z,100535.94
2018-08-24T17:06:51.732Z,100538.11
2018-08-24T17:09:20.195Z,100536.36
2018-08-24T17:11:48.673Z,100535.48
2018-08-24T17:14:17.001Z,100535.17
2018-08-24T17:16:45.412Z,100536.59
2018-08-24T17:19:13.728Z,100526.95
2018-08-24T17:21:42.041Z,100525.42
2018-08-24T17:24:10.375Z,100538.84
2018-08-24T17:26:38.844Z,100536.16
2018-08-24T17:29:07.219Z,100526.98
2018-08-24T17:31:35.562Z,100527.64
2018-08-24T17:34:03.935Z,100534.42
2018-08-24T17:36:32.251Z,100530.35
2018-08-24T17:39:00.551Z,100532.70
2018-08-24T17:41:28.901Z,100536.13
2018-08-24T17:43:57.241Z,100538.18
2018-08-24T17:46:25.599Z,100534.27
2018-08-24T17:48:53.955Z,100538.61
2018-08-24T17:51:22.267Z,100535.25
2018-08-24T17:53:50.574Z,100531.38
2018-08-24T17:56:18.932Z,100529.84
2018-08-24T17:58:47.266Z,100540.95
2018-08-24T18:01:15.632Z,100529.87
2018-08-24T18:03:43.939Z,100545.40
2018-08-24T18:06:12.251Z,100544.41
2018-08-24T18:08:40.617Z,100541.25
2018-08-24T18:11:08.964Z,100541.47
2018-08-24T18:13:37.308Z,100538.08
2018-08-24T18:16:05.781Z,100543.14
2018-08-24T18:18:34.152Z,100545.52
2018-08-24T18:21:02.520Z,100545.00
2018-08-24T18:23:30.838Z,100547.34
2018-08-24T18:25:59.165Z,100543.80
2018-08-24T18:28:27.470Z,100551.70
2018-08-24T18:30:55.821Z,100559.31
2018-08-24T18:33:24.157Z,100551.61
2018-08-24T18:37:17.239Z,100545.87
2018-08-24T18:39:45.533Z,100553.44
2018-08-24T18:42:13.999Z,100551.19
2018-08-24T18:44:42.305Z,100555.89
2018-08-24T18:47:10.873Z,100554.67
2018-08-24T18:49:39.212Z,100552.94
2018-08-24T18:52:07.551Z,100549.05
2018-08-24T18:54:35.888Z,100556.42
2018-08-24T18:57:04.229Z,100561.27
2018-08-24T18:59:32.540Z,100557.68
2018-08-24T19:02:00.884Z,100563.42
2018-08-24T19:04:29.218Z,100560.64
2018-08-24T19:06:57.560Z,100558.09
2018-08-24T19:09:25.870Z,100563.02
2018-08-24T19:11:59.500Z,100572.86
2018-08-24T19:14:27.913Z,100566.09
2018-08-24T19:16:56.281Z,100568.13
2018-08-24T19:19:29.804Z,100574.59
2018-08-24T19:22:02.096Z,100573.45
2018-08-24T19:24:30.452Z,100580.84
2018-08-24T19:26:58.807Z,100577.55
2018-08-24T19:29:32.541Z,100578.47
2018-08-24T19:32:00.997Z,100580.20
2018-08-24T19:34:29.310Z,100581.12
2018-08-24T19:36:57.653Z,100577.02
2018-08-24T19:39:26.115Z,100573.52
2018-08-24T19:41:59.531Z,100576.58
2018-08-24T19:44:27.882Z,100573.20
2018-08-24T19:46:56.189Z,100576.45
2018-08-24T19:49:24.562Z,100575.22
2018-08-24T19:51:52.928Z,100575.58
2018-08-24T19:54:21.288Z,100570.98
2018-08-24T19:56:49.597Z,100574.16
2018-08-24T19:59:18.208Z,100574.44
2018-08-24T20:01:46.525Z,100565.73
2018-08-24T20:04:14.820Z,100567.46
2018-08-24T20:06:48.400Z,100561.89
2018-08-24T20:09:22.013Z,100564.95
2018-08-24T20:11:51.592Z,100561.06
2018-08-24T20:14:25.329Z,100562.78
2018-08-24T20:16:59.014Z,100560.12
2018-08-24T20:20:02.645Z,100562.48
2018-08-24T20:22:31.154Z,100559.19
2018-08-24T20:24:59.492Z,100555.28
2018-08-24T20:27:27.828Z,100553.14
2018-08-24T20:29:56.157Z,100552.83
2018-08-24T20:32:24.439Z,100546.23
2018-08-24T20:34:52.748Z,100545.30
2018-08-24T20:37:21.099Z,100548.48
2018-08-24T20:39:49.397Z,100542.55
2018-08-24T20:42:17.745Z,100540.80
2018-08-24T20:44:46.080Z,100536.68
2018-08-24T20:47:14.421Z,100539.52
2018-08-24T20:49:42.697Z,100535.23
2018-08-24T20:52:11.231Z,100532.27
2018-08-24T20:54:39.613Z,100534.11
2018-08-24T20:57:07.903Z,100533.47
2018-08-24T20:59:36.182Z,100536.02
2018-08-24T21:02:04.501Z,100531.93
2018-08-24T21:04:32.770Z,100528.20
2018-08-24T21:07:01.071Z,100522.97
2018-08-24T21:09:29.376Z,100517.53
2018-08-24T21:11:57.719Z,100519.77
2018-08-24T21:14:26.719Z,100519.34
2018-08-24T21:16:55.265Z,100519.73
2018-08-24T21:19:23.551Z,100517.24
2018-08-24T21:21:51.892Z,100521.75
2018-08-24T21:24:20.199Z,100520.38
2018-08-24T21:26:48.937Z,100518.67
2018-08-24T21:29:17.441Z,100514.46
2018-08-24T21:31:45.699Z,100512.37
2018-08-24T21:34:14.059Z,100511.76
2018-08-24T21:36:42.491Z,100511.50
2018-08-24T21:39:11.957Z,100511.28
2018-08-24T21:41:41.127Z,100506.66
2018-08-24T21:44:09.722Z,100508.16
2018-08-24T21:46:38.092Z,100504.45
2018-08-24T21:49:06.763Z,100503.38
2018-08-24T21:51:35.555Z,100501.31
2018-08-24T21:54:04.029Z,100492.27
2018-08-24T21:56:32.419Z,100492.65
2018-08-24T21:59:00.766Z,100490.71
2018-08-24T22:01:29.097Z,100489.98
2018-08-24T22:03:57.728Z,100486.14
2018-08-24T22:06:26.060Z,100485.83
2018-08-24T22:08:54.344Z,100488.28
2018-08-24T22:11:22.660Z,100487.25
2018-08-24T22:13:50.989Z,100485.31
2018-08-24T22:16:19.425Z,100483.34
2018-08-24T22:18:48.002Z,100490.06
2018-08-24T22:21:16.336Z,100492.36
2018-08-24T22:23:44.756Z,100489.14
2018-08-24T22:26:13.080Z,100485.41
2018-08-24T22:28:41.383Z,100486.59
2018-08-24T22:31:09.749Z,100485.55
2018-08-24T22:33:38.055Z,100493.89
2018-08-24T22:36:06.355Z,100498.05
2018-08-24T22:38:34.674Z,100484.46
2018-08-24T22:41:03.087Z,100483.95
2018-08-24T22:43:36.207Z,100493.89
2018-08-24T22:46:05.191Z,100488.58
2018-08-24T22:48:34.109Z,100485.72
2018-08-24T22:51:02.766Z,100481.43
2018-08-24T22:53:31.078Z,100483.70
2018-08-24T22:55:59.353Z,100481.80
2018-08-24T22:58:27.704Z,100482.23
2018-08-24T23:00:56.016Z,100478.59
2018-08-24T23:03:24.340Z,100471.56
2018-08-24T23:05:52.672Z,100468.83
2018-08-24T23:08:21.100Z,100464.98
2018-08-24T23:10:49.408Z,100460.58
2018-08-24T23:13:17.716Z,100454.88
2018-08-24T23:15:46.106Z,100457.67
2018-08-24T23:18:14.459Z,100454.12
2018-08-24T23:20:42.948Z,100447.73
2018-08-24T23:23:11.224Z,100447.06
2018-08-24T23:25:39.547Z,100440.45
2018-08-24T23:28:07.919Z,100439.38
2018-08-24T23:30:36.353Z,100441.05
2018-08-24T23:33:04.665Z,100436.07
2018-08-24T23:35:32.970Z,100428.73
2018-08-24T23:38:01.307Z,100434.98
2018-08-24T23:40:29.640Z,100433.57
2018-08-24T23:42:58.019Z,100423.36
2018-08-24T23:45:26.333Z,100418.55
2018-08-24T23:47:54.748Z,100418.34
2018-08-24T23:50:23.272Z,100418.04
2018-08-24T23:52:51.603Z,100411.20
2018-08-24T23:55:19.910Z,100417.16
2018-08-24T23:57:48.441Z,100411.66
